Time;durP1;ratioP1;P1;durP2;ratioP2;P2;SDS_P1;SDS_P2;PMS_P1;PMS_P2;Temp;Humidity;BMP_temperature;BMP_pressure;BME280_temperature;BME280_humidity;BME280_pressure;Samples;Min_cycle;Max_cycle;Signal;HPM_P1;HPM_P2
2023/09/24 00:02:15;;;;;;;4.30;2.43;;;;;;;12.87;100.00;98802.81;5151859;27;20698;-72
2023/09/24 00:04:42;;;;;;;3.00;2.03;;;;;;;12.80;100.00;98812.69;5152012;27;20212;-72
2023/09/24 00:07:10;;;;;;;3.97;2.50;;;;;;;12.72;100.00;98818.31;5151909;27;20204;-72
2023/09/24 00:09:36;;;;;;;5.07;2.17;;;;;;;12.71;100.00;98807.84;5151723;27;20666;-72
2023/09/24 00:12:02;;;;;;;2.93;2.30;;;;;;;12.70;100.00;98817.69;5151540;27;20599;-72
2023/09/24 00:14:30;;;;;;;4.80;2.40;;;;;;;12.67;100.00;98822.66;5151848;27;20205;-72
2023/09/24 00:16:57;;;;;;;2.63;2.20;;;;;;;12.72;100.00;98822.81;5151835;27;20211;-72
2023/09/24 00:19:24;;;;;;;2.37;2.13;;;;;;;12.72;100.00;98823.66;5151664;27;20210;-72
2023/09/24 00:21:51;;;;;;;4.03;2.77;;;;;;;12.67;100.00;98831.47;5151845;27;20205;-72
2023/09/24 00:24:18;;;;;;;3.17;2.70;;;;;;;12.63;100.00;98832.09;5151817;27;20209;-72
2023/09/24 00:26:45;;;;;;;4.43;2.30;;;;;;;12.68;100.00;98833.13;5151713;27;20262;-72
2023/09/24 00:29:12;;;;;;;4.63;2.60;;;;;;;12.68;100.00;98835.78;5151255;27;20707;-72
2023/09/24 00:31:39;;;;;;;5.37;2.73;;;;;;;12.70;100.00;98833.69;5151063;27;20699;-72
2023/09/24 00:34:05;;;;;;;3.43;2.33;;;;;;;12.57;100.00;98832.97;5151599;27;20543;-72
2023/09/24 00:36:33;;;;;;;3.23;2.50;;;;;;;12.59;100.00;98830.88;5151476;27;20203;-72
2023/09/24 00:38:59;;;;;;;3.13;2.50;;;;;;;12.54;100.00;98839.53;5151099;27;20707;-72
2023/09/24 00:41:26;;;;;;;5.73;2.40;;;;;;;12.50;100.00;98835.66;5151434;27;20242;-72
2023/09/24 00:43:53;;;;;;;5.53;2.30;;;;;;;12.48;100.00;98835.03;5139377;27;20668;-72
2023/09/24 00:46:21;;;;;;;5.07;2.80;;;;;;;12.50;100.00;98833.00;5137472;27;20206;-72
2023/09/24 00:48:49;;;;;;;4.67;2.77;;;;;;;12.37;100.00;98834.88;5137417;27;20235;-72
2023/09/24 00:51:17;;;;;;;3.60;2.53;;;;;;;12.45;100.00;98835.47;5137038;27;20697;-72
2023/09/24 00:53:44;;;;;;;5.10;3.10;;;;;;;12.45;100.00;98834.66;5137309;27;20291;-72
2023/09/24 00:56:12;;;;;;;2.97;2.60;;;;;;;12.38;100.00;98837.34;5137034;27;20571;-72
2023/09/24 00:58:39;;;;;;;2.50;2.10;;;;;;;12.36;100.00;98833.25;5137177;27;20224;-72
2023/09/24 01:01:06;;;;;;;3.07;2.27;;;;;;;12.38;100.00;98831.22;5137259;27;20200;-72
2023/09/24 01:03:33;;;;;;;3.03;2.03;;;;;;;12.25;100.00;98839.25;5137170;27;20259;-72
2023/09/24 01:05:59;;;;;;;3.27;2.30;;;;;;;12.16;100.00;98840.50;5136909;27;20211;-72
2023/09/24 01:08:31;;;;;;;5.60;2.40;;;;;;;12.18;100.00;98851.78;5137021;27;20231;-72
2023/09/24 01:10:58;;;;;;;5.23;2.60;;;;;;;12.08;100.00;98859.38;5137832;27;20347;-72
2023/09/24 01:13:26;;;;;;;5.13;2.20;;;;;;;11.98;100.00;98865.13;5136994;27;20252;-72
2023/09/24 01:15:52;;;;;;;4.23;2.27;;;;;;;11.87;100.00;98860.47;5136920;27;20208;-72
2023/09/24 01:18:21;;;;;;;2.77;2.13;;;;;;;11.98;100.00;98862.47;5136627;27;20224;-72
2023/09/24 01:20:48;;;;;;;3.53;2.30;;;;;;;12.02;100.00;98858.38;5136834;27;20214;-74
2023/09/24 01:23:15;;;;;;;5.27;2.33;;;;;;;12.10;100.00;98859.97;5136789;27;20199;-74
2023/09/24 01:25:43;;;;;;;2.97;1.80;;;;;;;12.10;100.00;98857.31;5136882;27;20204;-72
2023/09/24 01:28:10;;;;;;;3.87;2.30;;;;;;;12.03;100.00;98852.00;5136675;27;20315;-72
2023/09/24 01:30:38;;;;;;;2.33;2.00;;;;;;;12.19;100.00;98856.06;5136362;27;20206;-72
2023/09/24 01:33:05;;;;;;;2.90;2.30;;;;;;;12.12;100.00;98845.41;5136451;27;20245;-72
2023/09/24 01:35:36;;;;;;;4.73;2.10;;;;;;;12.09;100.00;98845.03;5136480;27;20203;-72
2023/09/24 01:38:06;;;;;;;4.77;2.17;;;;;;;12.09;100.00;98853.84;5136440;27;20223;-72
2023/09/24 01:40:37;;;;;;;3.67;2.23;;;;;;;12.08;100.00;98848.72;5136405;27;20212;-72
2023/09/24 01:43:07;;;;;;;3.93;2.20;;;;;;;12.04;100.00;98852.84;5136014;27;20544;-72
2023/09/24 01:45:34;;;;;;;3.30;2.20;;;;;;;11.90;100.00;98856.56;5136059;27;20297;-72
2023/09/24 01:48:04;;;;;;;2.83;1.83;;;;;;;11.86;100.00;98850.00;5136492;27;20222;-72
2023/09/24 01:50:33;;;;;;;2.53;2.23;;;;;;;11.85;100.00;98851.84;5136477;27;20210;-72
2023/09/24 01:53:00;;;;;;;3.53;2.00;;;;;;;11.79;100.00;98855.34;5136338;27;20315;-72
2023/09/24 01:55:28;;;;;;;4.20;2.00;;;;;;;11.79;100.00;98859.84;5135328;27;20302;-72
2023/09/24 01:57:55;;;;;;;3.73;2.03;;;;;;;11.65;100.00;98858.22;5136189;27;20229;-72
2023/09/24 02:00:25;;;;;;;3.73;2.13;;;;;;;11.67;100.00;98856.19;5136284;27;20204;-72
2023/09/24 02:02:59;;;;;;;3.77;2.07;;;;;;;11.71;100.00;98865.41;5136303;27;20211;-72
2023/09/24 02:05:26;;;;;;;5.60;2.20;;;;;;;11.77;100.00;98857.41;5136253;27;20269;-72
2023/09/24 02:07:53;;;;;;;2.70;1.87;;;;;;;11.81;100.00;98847.97;5136134;27;20240;-72
2023/09/24 02:10:21;;;;;;;2.20;1.93;;;;;;;11.67;100.00;98856.19;5135719;27;20297;-72
2023/09/24 02:12:48;;;;;;;3.57;2.00;;;;;;;11.65;100.00;98859.03;5135603;27;20263;-72
2023/09/24 02:15:18;;;;;;;2.80;2.20;;;;;;;11.61;100.00;98862.34;5135379;27;20720;-73
2023/09/24 02:17:47;;;;;;;3.87;2.33;;;;;;;11.63;100.00;98866.44;5135321;27;20223;-74
2023/09/24 02:20:22;;;;;;;5.60;2.40;;;;;;;11.64;100.00;98867.22;5135692;27;20264;-74
2023/09/24 02:22:50;;;;;;;3.83;2.37;;;;;;;11.55;100.00;98868.44;5135701;27;20204;-74
2023/09/24 02:25:19;;;;;;;4.20;2.03;;;;;;;11.37;100.00;98865.56;5135301;27;20213;-74
2023/09/24 02:27:45;;;;;;;3.73;2.10;;;;;;;11.47;100.00;98868.63;5135192;27;20768;-74
2023/09/24 02:30:13;;;;;;;3.50;1.80;;;;;;;11.44;100.00;98869.88;5135113;27;20206;-72
2023/09/24 02:32:40;;;;;;;3.80;2.10;;;;;;;11.39;100.00;98867.00;5134906;27;20230;-72
2023/09/24 02:35:08;;;;;;;5.60;2.50;;;;;;;11.47;100.00;98874.78;5135064;27;20213;-72
2023/09/24 02:37:35;;;;;;;2.80;1.80;;;;;;;11.46;100.00;98877.66;5135013;27;20701;-72
2023/09/24 02:40:05;;;;;;;4.23;2.17;;;;;;;11.28;100.00;98883.59;5135333;27;20209;-72
2023/09/24 02:42:32;;;;;;;3.17;2.10;;;;;;;11.24;100.00;98877.03;5135562;27;20626;-72
2023/09/24 02:44:59;;;;;;;6.17;2.13;;;;;;;11.14;100.00;98882.72;5135234;27;20202;-72
2023/09/24 02:47:27;;;;;;;2.60;2.00;;;;;;;11.19;100.00;98882.16;5134984;27;20229;-72
2023/09/24 02:49:54;;;;;;;2.83;1.80;;;;;;;11.19;100.00;98876.81;5134995;27;20202;-72
2023/09/24 02:52:20;;;;;;;4.83;2.30;;;;;;;11.19;100.00;98888.25;5134931;27;20224;-72
2023/09/24 02:54:48;;;;;;;3.50;2.20;;;;;;;11.17;100.00;98881.50;5134847;27;20206;-72
2023/09/24 02:57:14;;;;;;;3.00;2.00;;;;;;;11.17;100.00;98886.03;5134858;27;20251;-73
2023/09/24 02:59:41;;;;;;;2.30;1.60;;;;;;;11.14;100.00;98882.72;5134971;27;20202;-73
2023/09/24 03:02:07;;;;;;;3.00;1.90;;;;;;;11.23;100.00;98888.69;5134882;27;20194;-72
2023/09/24 03:04:34;;;;;;;2.87;2.03;;;;;;;11.18;100.00;98887.66;5134865;27;20203;-72
2023/09/24 03:07:00;;;;;;;4.87;2.27;;;;;;;11.19;100.00;98888.25;5134180;27;20680;-72
2023/09/24 03:09:26;;;;;;;3.50;2.20;;;;;;;11.18;100.00;98890.31;5134406;27;20669;-72
2023/09/24 03:11:53;;;;;;;3.60;2.20;;;;;;;11.09;100.00;98897.69;5134257;27;20222;-72
2023/09/24 03:14:20;;;;;;;3.30;2.23;;;;;;;11.10;100.00;98894.00;5134772;27;20213;-72
2023/09/24 03:16:47;;;;;;;3.30;2.37;;;;;;;11.14;100.00;98911.22;5134770;27;20210;-72
2023/09/24 03:19:13;;;;;;;3.30;2.30;;;;;;;11.21;100.00;98905.91;5134633;27;20594;-72
2023/09/24 03:21:39;;;;;;;4.50;2.30;;;;;;;11.15;100.00;98910.19;5134408;27;20676;-72
2023/09/24 03:24:10;;;;;;;4.07;2.73;;;;;;;11.18;100.00;98910.59;5134216;27;20203;-72
2023/09/24 03:26:36;;;;;;;3.33;2.63;;;;;;;11.23;100.00;98913.47;5134551;27;20239;-72
2023/09/24 03:29:03;;;;;;;6.20;2.83;;;;;;;11.26;100.00;98916.75;5134397;28;20335;-72
2023/09/24 03:31:32;;;;;;;4.23;2.90;;;;;;;11.27;100.00;98923.72;5134120;28;20210;-72
2023/09/24 03:33:59;;;;;;;4.43;2.90;;;;;;;11.33;100.00;98937.03;5134086;28;20202;-72
2023/09/24 03:36:25;;;;;;;3.23;2.77;;;;;;;11.37;100.00;98929.47;5134317;28;20206;-72
2023/09/24 03:38:51;;;;;;;3.50;3.20;;;;;;;11.37;100.00;98943.59;5134333;28;20267;-72
2023/09/24 03:41:18;;;;;;;3.17;2.87;;;;;;;11.41;100.00;98936.84;5134410;28;20198;-72
2023/09/24 03:43:44;;;;;;;3.93;3.40;;;;;;;11.40;100.00;98934.38;5134291;28;20206;-72
2023/09/24 03:46:11;;;;;;;4.60;3.10;;;;;;;11.36;100.00;98933.97;5134392;28;20203;-72
2023/09/24 03:48:37;;;;;;;3.57;3.07;;;;;;;11.38;100.00;98931.09;5134016;28;20222;-72
2023/09/24 03:51:04;;;;;;;4.00;2.93;;;;;;;11.34;100.00;98932.53;5134058;28;20548;-72
2023/09/24 03:53:30;;;;;;;4.47;3.30;;;;;;;11.22;100.00;98929.66;5133901;28;20586;-72
2023/09/24 03:55:56;;;;;;;3.10;2.80;;;;;;;11.20;100.00;98950.31;5134291;28;20205;-72
2023/09/24 03:58:23;;;;;;;3.07;2.70;;;;;;;11.22;100.00;98942.97;5134180;28;20218;-72
2023/09/24 04:00:49;;;;;;;2.83;2.63;;;;;;;11.19;100.00;98938.84;5134132;28;20202;-72
2023/09/24 04:03:16;;;;;;;3.53;3.10;;;;;;;11.19;100.00;98944.16;5133864;28;20224;-72
2023/09/24 04:05:43;;;;;;;4.50;3.00;;;;;;;11.17;100.00;98955.22;5134151;28;20218;-72
2023/09/24 04:08:09;;;;;;;3.03;2.47;;;;;;;11.16;100.00;98959.72;5133890;28;20225;-72
2023/09/24 04:10:36;;;;;;;3.57;2.50;;;;;;;11.19;100.00;98965.44;5134035;28;20210;-72
2023/09/24 04:13:02;;;;;;;3.50;2.60;;;;;;;11.07;100.00;98961.75;5133682;28;20258;-72
2023/09/24 04:15:29;;;;;;;4.27;2.80;;;;;;;11.10;100.00;98971.19;5134181;28;20207;-72
2023/09/24 04:18:00;;;;;;;5.30;2.93;;;;;;;11.03;100.00;98957.00;5134710;27;20233;-72
2023/09/24 04:20:29;;;;;;;4.10;2.70;;;;;;;10.99;100.00;98971.72;5138216;27;20211;-72
2023/09/24 04:22:55;;;;;;;2.67;2.30;;;;;;;11.06;100.00;98977.91;5137936;27;20195;-72
2023/09/24 04:25:22;;;;;;;3.27;2.77;;;;;;;10.95;100.00;98984.63;5137950;27;20213;-72
2023/09/24 04:27:49;;;;;;;5.10;2.83;;;;;;;10.87;100.00;98982.13;5137753;27;20230;-72
2023/09/24 04:30:16;;;;;;;3.13;2.60;;;;;;;10.89;100.00;98984.59;5137470;27;20209;-72
2023/09/24 04:32:48;;;;;;;4.70;3.00;;;;;;;10.84;100.00;98981.72;5137298;27;20222;-72
2023/09/24 04:35:16;;;;;;;3.57;2.33;;;;;;;10.81;100.00;98987.41;5137477;27;20226;-72
2023/09/24 04:37:43;;;;;;;3.57;3.00;;;;;;;10.85;100.00;98991.31;5137296;27;20704;-72
2023/09/24 04:40:11;;;;;;;4.60;2.70;;;;;;;10.82;100.00;98997.06;5138694;27;20218;-72
2023/09/24 04:42:38;;;;;;;3.07;2.70;;;;;;;10.88;100.00;98986.44;5137241;27;20228;-72
2023/09/24 04:45:06;;;;;;;4.13;2.70;;;;;;;10.84;100.00;98989.69;5137619;27;20202;-72
2023/09/24 04:47:33;;;;;;;2.97;2.77;;;;;;;10.82;100.00;98994.41;5137416;27;20226;-72
2023/09/24 04:49:59;;;;;;;2.93;2.67;;;;;;;10.76;100.00;99000.50;5137236;27;20622;-72
2023/09/24 04:52:25;;;;;;;3.30;2.60;;;;;;;10.72;100.00;99000.06;5136987;27;20717;-72
2023/09/24 04:54:54;;;;;;;4.57;2.70;;;;;;;10.83;100.00;99006.69;5137212;27;20209;-72
2023/09/24 04:57:20;;;;;;;4.33;2.50;;;;;;;10.83;100.00;99009.34;5137129;27;20265;-72
2023/09/24 04:59:47;;;;;;;3.90;2.97;;;;;;;10.85;100.00;99002.78;5137193;27;20200;-72
2023/09/24 05:02:13;;;;;;;2.53;2.33;;;;;;;10.87;100.00;99005.25;5136724;27;20202;-72
2023/09/24 05:04:39;;;;;;;2.70;2.50;;;;;;;10.79;100.00;99005.44;5136649;27;20210;-72
2023/09/24 05:07:06;;;;;;;2.77;2.50;;;;;;;10.75;100.00;98999.69;5136778;27;20664;-72
2023/09/24 05:09:32;;;;;;;3.73;2.47;;;;;;;10.61;100.00;99010.44;5136525;27;20620;-72
2023/09/24 05:11:58;;;;;;;5.10;3.13;;;;;;;10.66;100.00;99019.47;5136526;27;20202;-72
2023/09/24 05:14:25;;;;;;;6.60;2.50;;;;;;;10.63;100.00;99022.53;5136626;27;20207;-72
2023/09/24 05:16:51;;;;;;;2.40;2.17;;;;;;;10.64;100.00;99032.13;5136543;27;20207;-72
2023/09/24 05:19:17;;;;;;;4.57;2.40;;;;;;;10.57;100.00;99025.13;5136835;27;20279;-72
2023/09/24 05:21:44;;;;;;;2.63;2.40;;;;;;;10.54;100.00;99026.34;5136851;27;20202;-72
2023/09/24 05:24:11;;;;;;;4.63;2.97;;;;;;;10.53;100.00;99029.19;5136792;27;20233;-72
2023/09/24 05:26:37;;;;;;;2.83;2.23;;;;;;;10.54;100.00;99029.00;5136495;27;20207;-72
2023/09/24 05:29:04;;;;;;;2.67;2.37;;;;;;;10.43;100.00;99034.88;5136537;27;20230;-72
2023/09/24 05:31:30;;;;;;;2.70;2.50;;;;;;;10.51;100.00;99032.06;5136233;27;20579;-72
2023/09/24 05:33:57;;;;;;;3.83;2.23;;;;;;;10.51;100.00;99041.88;5136473;27;20232;-72
2023/09/24 05:36:23;;;;;;;2.93;2.20;;;;;;;10.62;100.00;99044.00;5136518;27;20283;-72
2023/09/24 05:38:51;;;;;;;3.90;2.53;;;;;;;10.66;100.00;99045.25;5136398;27;20226;-72
2023/09/24 05:41:17;;;;;;;3.50;1.97;;;;;;;10.81;100.00;99035.28;5136205;27;20687;-72
2023/09/24 05:43:46;;;;;;;2.93;2.40;;;;;;;10.74;100.00;99039.78;5136082;27;20665;-72
2023/09/24 05:46:13;;;;;;;3.47;2.10;;;;;;;10.75;100.00;99036.09;5135926;27;20220;-72
2023/09/24 05:48:39;;;;;;;2.90;2.53;;;;;;;10.74;100.00;99050.41;5135956;27;20279;-72
2023/09/24 05:51:07;;;;;;;3.83;2.37;;;;;;;10.77;100.00;99050.84;5136222;27;20202;-72
2023/09/24 05:53:33;;;;;;;2.70;2.43;;;;;;;10.83;100.00;99038.59;5136101;27;20218;-72
2023/09/24 05:56:00;;;;;;;3.27;2.27;;;;;;;10.87;100.00;99039.84;5136116;27;20198;-72
2023/09/24 05:58:26;;;;;;;2.73;2.47;;;;;;;10.99;100.00;99039.09;5136054;27;20225;-72
2023/09/24 06:00:56;;;;;;;2.93;2.20;;;;;;;11.04;100.00;99039.31;5136076;27;20683;-72
2023/09/24 06:03:22;;;;;;;3.43;2.60;;;;;;;11.07;100.00;99041.59;5135990;27;20205;-72
2023/09/24 06:05:49;;;;;;;2.77;2.37;;;;;;;11.16;100.00;99044.88;5135938;27;20203;-72
2023/09/24 06:08:15;;;;;;;2.87;2.47;;;;;;;11.22;100.00;99043.28;5135608;27;20595;-72
2023/09/24 06:10:46;;;;;;;2.67;2.17;;;;;;;11.28;100.00;99046.78;5135728;27;20202;-72
2023/09/24 06:13:16;;;;;;;4.30;2.43;;;;;;;11.30;100.00;99049.25;5135688;27;20223;-72
2023/09/24 06:15:43;;;;;;;2.87;1.93;;;;;;;11.44;100.00;99052.78;5136530;27;20206;-72
2023/09/24 06:18:11;;;;;;;3.93;2.37;;;;;;;11.46;100.00;99058.72;5135285;27;20226;-72
2023/09/24 06:20:41;;;;;;;3.47;2.07;;;;;;;11.52;100.00;99055.28;5135640;27;20210;-73
2023/09/24 06:23:08;;;;;;;2.47;2.27;;;;;;;11.40;100.00;99060.34;5135581;27;20198;-73
2023/09/24 06:25:35;;;;;;;4.07;2.80;;;;;;;11.51;100.00;99057.09;5135463;27;20259;-73
2023/09/24 06:28:04;;;;;;;3.30;2.37;;;;;;;11.45;100.00;99065.91;5135455;27;20222;-73
2023/09/24 06:30:31;;;;;;;2.70;2.20;;;;;;;11.53;100.00;99060.38;5135212;27;20568;-73
2023/09/24 06:32:57;;;;;;;2.30;1.80;;;;;;;11.56;100.00;99059.97;5134994;27;20213;-73
2023/09/24 06:35:24;;;;;;;2.80;2.37;;;;;;;11.66;100.00;99060.44;5135279;27;20211;-73
2023/09/24 06:37:50;;;;;;;3.83;2.27;;;;;;;11.93;100.00;99066.66;5134973;27;20258;-73
2023/09/24 06:40:17;;;;;;;3.07;2.33;;;;;;;11.85;100.00;99067.66;5134239;27;20722;-73
2023/09/24 06:42:45;;;;;;;3.87;2.70;;;;;;;11.99;100.00;99071.19;5134699;27;20682;-73
2023/09/24 06:45:12;;;;;;;2.73;2.07;;;;;;;12.13;100.00;99073.66;5135060;27;20203;-73
2023/09/24 06:47:38;;;;;;;3.20;2.30;;;;;;;12.00;100.00;99081.63;5134913;27;20219;-73
2023/09/24 06:50:05;;;;;;;3.47;2.60;;;;;;;12.05;100.00;99070.34;5134922;27;20305;-73
2023/09/24 06:52:32;;;;;;;3.40;2.40;;;;;;;12.10;100.00;99079.38;5134641;27;20665;-73
2023/09/24 06:54:59;;;;;;;6.03;2.40;;;;;;;12.13;100.00;99080.81;5134676;27;20210;-73
2023/09/24 06:57:26;;;;;;;2.97;2.37;;;;;;;12.14;100.00;99082.47;5134924;27;20231;-73
2023/09/24 06:59:53;;;;;;;2.53;2.33;;;;;;;12.07;100.00;99076.31;5134521;27;20581;-73
2023/09/24 07:02:19;;;;;;;4.47;2.67;;;;;;;12.04;100.00;99079.38;5134780;27;20308;-73
2023/09/24 07:04:46;;;;;;;2.40;2.20;;;;;;;12.06;100.00;99080.81;5134646;27;20202;-73
2023/09/24 07:07:12;;;;;;;3.73;2.40;;;;;;;12.02;100.00;99078.78;5134397;27;20203;-73
2023/09/24 07:09:38;;;;;;;3.07;2.63;;;;;;;12.14;100.00;99087.78;5134402;27;20748;-73
2023/09/24 07:12:05;;;;;;;2.30;2.10;;;;;;;12.21;100.00;99081.44;5134665;27;20603;-73
2023/09/24 07:14:31;;;;;;;2.43;2.23;;;;;;;12.25;100.00;99085.34;5134527;27;20260;-73
2023/09/24 07:16:58;;;;;;;3.00;2.17;;;;;;;12.18;100.00;99086.38;5134501;27;20251;-73
2023/09/24 07:19:24;;;;;;;3.00;2.50;;;;;;;12.27;100.00;99088.63;5133997;27;20677;-73
2023/09/24 07:21:52;;;;;;;2.80;2.30;;;;;;;12.26;100.00;99086.97;5134349;27;20205;-73
2023/09/24 07:24:18;;;;;;;3.40;2.57;;;;;;;12.37;100.00;99098.88;5134494;27;20201;-73
2023/09/24 07:26:44;;;;;;;3.20;2.57;;;;;;;12.40;100.00;99101.16;5134543;27;20204;-73
2023/09/24 07:29:11;;;;;;;5.37;2.13;;;;;;;12.51;100.00;99097.84;5134480;27;20229;-73
2023/09/24 07:31:37;;;;;;;4.50;2.40;;;;;;;12.67;100.00;99098.28;5134255;28;20251;-73
2023/09/24 07:34:05;;;;;;;4.67;2.40;;;;;;;12.73;100.00;99104.63;5134131;28;20228;-73
2023/09/24 07:36:31;;;;;;;2.63;2.17;;;;;;;12.76;100.00;99097.03;5134205;28;20204;-73
2023/09/24 07:38:58;;;;;;;4.07;2.50;;;;;;;12.87;100.00;99098.22;5134156;28;20262;-73
2023/09/24 07:41:25;;;;;;;2.80;2.50;;;;;;;12.81;100.00;99097.22;5133992;28;20202;-73
2023/09/24 07:43:51;;;;;;;2.93;2.60;;;;;;;12.88;100.00;99107.91;5134103;28;20196;-73
2023/09/24 07:46:19;;;;;;;3.77;2.60;;;;;;;12.92;100.00;99107.25;5134316;28;20205;-73
2023/09/24 07:48:47;;;;;;;3.87;2.67;;;;;;;13.04;100.00;99108.31;5134179;28;20306;-73
2023/09/24 07:51:16;;;;;;;2.63;2.37;;;;;;;13.27;100.00;99111.31;5134132;28;20216;-73
2023/09/24 07:53:43;;;;;;;2.63;2.40;;;;;;;13.23;100.00;99102.09;5136466;27;20221;-73
2023/09/24 07:56:10;;;;;;;4.17;2.00;;;;;;;13.21;100.00;99101.47;5138304;27;20208;-73
2023/09/24 07:58:38;;;;;;;2.70;2.37;;;;;;;13.41;100.00;99096.06;5138135;27;20317;-73
2023/09/24 08:01:09;;;;;;;2.50;2.30;;;;;;;13.36;100.00;99104.72;5138210;27;20250;-73
2023/09/24 08:03:37;;;;;;;3.20;2.37;;;;;;;13.54;100.00;99098.66;5138153;27;20181;-73
2023/09/24 08:06:04;;;;;;;3.93;2.30;;;;;;;13.68;100.00;99109.09;5138163;27;20204;-73
2023/09/24 08:08:31;;;;;;;4.93;2.60;;;;;;;13.59;100.00;99104.19;5138417;27;20251;-73
2023/09/24 08:10:58;;;;;;;2.70;2.43;;;;;;;13.57;100.00;99109.75;5137726;27;20699;-73
2023/09/24 08:13:25;;;;;;;4.90;2.40;;;;;;;13.74;100.00;99113.56;5137949;27;20228;-73
2023/09/24 08:15:52;;;;;;;7.03;2.30;;;;;;;13.86;100.00;99111.88;5138016;27;20210;-73
2023/09/24 08:18:18;;;;;;;2.80;2.10;;;;;;;14.02;100.00;99108.69;5138205;27;20222;-73
2023/09/24 08:20:45;;;;;;;5.13;1.93;;;;;;;13.99;100.00;99106.47;5137761;27;20206;-73
2023/09/24 08:23:13;;;;;;;3.10;2.67;;;;;;;13.98;100.00;99117.38;5137621;27;20238;-73
2023/09/24 08:25:40;;;;;;;5.67;2.23;;;;;;;14.01;100.00;99109.72;5137652;27;20206;-73
2023/09/24 08:28:07;;;;;;;3.00;2.00;;;;;;;14.09;100.00;99109.47;5137646;27;20226;-73
2023/09/24 08:30:34;;;;;;;3.27;1.80;;;;;;;14.25;100.00;99111.66;5137372;27;20206;-73
2023/09/24 08:33:00;;;;;;;2.30;1.90;;;;;;;14.45;100.00;99111.50;5137632;27;20187;-73
2023/09/24 08:35:27;;;;;;;4.73;1.97;;;;;;;14.67;100.00;99124.31;5137797;27;20230;-73
2023/09/24 08:37:53;;;;;;;3.27;2.20;;;;;;;14.67;100.00;99121.63;5137492;27;20226;-73
2023/09/24 08:40:20;;;;;;;3.03;2.20;;;;;;;14.73;100.00;99123.41;5138075;27;20206;-73
2023/09/24 08:42:48;;;;;;;4.27;2.30;;;;;;;14.82;100.00;99118.59;5136987;27;20203;-73
2023/09/24 08:45:18;;;;;;;3.37;2.07;;;;;;;14.64;100.00;99127.41;5136944;27;20245;-73
2023/09/24 08:47:45;;;;;;;1.83;1.70;;;;;;;14.68;100.00;99125.09;5137339;27;20226;-73
2023/09/24 08:50:12;;;;;;;3.87;2.10;;;;;;;14.86;100.00;99127.81;5137220;27;20214;-73
2023/09/24 08:52:40;;;;;;;2.00;1.60;;;;;;;14.82;100.00;99121.28;5137043;27;20661;-73
2023/09/24 08:55:12;;;;;;;4.53;1.83;;;;;;;14.99;100.00;99127.69;5137234;27;20227;-73
2023/09/24 08:57:45;;;;;;;2.60;1.97;;;;;;;15.23;100.00;99122.31;5137133;27;20233;-73
2023/09/24 09:00:15;;;;;;;1.83;1.40;;;;;;;15.18;100.00;99118.63;5137068;27;20243;-73
2023/09/24 09:02:43;;;;;;;4.00;1.93;;;;;;;15.28;100.00;99117.09;5137077;27;20206;-73
2023/09/24 09:05:20;;;;;;;4.13;1.87;;;;;;;15.34;100.00;99120.78;5136360;27;20206;-73
2023/09/24 09:08:02;;;;;;;4.10;1.70;;;;;;;15.54;100.00;99113.31;5136953;27;20237;-73
2023/09/24 09:10:38;;;;;;;2.07;1.87;;;;;;;15.66;100.00;99109.69;5136890;27;20206;-73
2023/09/24 09:13:09;;;;;;;3.13;1.90;;;;;;;15.68;100.00;99109.41;5136638;27;20183;-73
2023/09/24 09:15:38;;;;;;;2.40;1.60;;;;;;;15.95;100.00;99114.22;5136725;27;20249;-74
2023/09/24 09:18:05;;;;;;;3.37;1.90;;;;;;;16.09;100.00;99109.47;5136832;27;20218;-74
2023/09/24 09:20:39;;;;;;;1.87;1.53;;;;;;;16.07;100.00;99101.69;5136560;27;20277;-74
2023/09/24 09:23:10;;;;;;;4.03;2.20;;;;;;;16.04;100.00;99104.81;5136465;27;20209;-74
2023/09/24 09:25:46;;;;;;;2.17;1.60;;;;;;;16.01;100.00;99113.31;5136657;27;20193;-74
2023/09/24 09:28:23;;;;;;;2.47;1.80;;;;;;;16.34;100.00;99100.25;5136251;27;20657;-74
2023/09/24 09:31:05;;;;;;;2.70;1.60;;;;;;;16.25;100.00;99101.63;5136005;27;20630;-74
2023/09/24 09:33:34;;;;;;;2.33;1.80;;;;;;;16.26;100.00;99105.94;5136410;27;20203;-74
2023/09/24 09:36:02;;;;;;;4.27;1.77;;;;;;;16.38;100.00;99101.38;5136305;27;20213;-74
2023/09/24 09:38:28;;;;;;;2.00;1.80;;;;;;;16.69;100.00;99093.06;5136329;27;20268;-74
2023/09/24 09:40:57;;;;;;;2.30;2.00;;;;;;;16.78;99.63;99094.34;5136035;27;20203;-74
2023/09/24 09:43:25;;;;;;;5.10;2.33;;;;;;;16.73;99.50;99096.13;5136201;27;20198;-74
2023/09/24 09:45:54;;;;;;;2.70;1.60;;;;;;;16.72;97.86;99099.84;5136134;27;20251;-74
2023/09/24 09:48:31;;;;;;;2.90;1.80;;;;;;;16.53;95.13;99088.41;5136189;27;20257;-74
2023/09/24 09:51:03;;;;;;;2.23;1.80;;;;;;;16.67;93.82;99091.66;5136200;27;20244;-74
2023/09/24 09:53:34;;;;;;;3.70;1.50;;;;;;;16.91;88.37;99095.97;5136293;27;20258;-74
2023/09/24 09:56:02;;;;;;;2.53;1.77;;;;;;;17.08;86.31;99097.75;5135513;27;20263;-74
2023/09/24 09:58:31;;;;;;;2.23;1.47;;;;;;;16.86;86.39;99101.22;5135314;27;20665;-73
2023/09/24 10:00:59;;;;;;;2.23;1.60;;;;;;;16.86;86.07;99087.81;5135450;27;20414;-73
2023/09/24 10:03:26;;;;;;;2.73;1.50;;;;;;;17.14;87.61;99096.78;5135762;27;20202;-73
2023/09/24 10:05:55;;;;;;;2.60;1.53;;;;;;;17.26;88.69;99086.03;5117202;27;20255;-73
2023/09/24 10:08:36;;;;;;;3.87;1.73;;;;;;;17.44;87.39;99085.91;5135451;27;20228;-73
2023/09/24 10:11:03;;;;;;;3.63;1.70;;;;;;;17.51;87.08;99083.91;5135522;27;20203;-73
2023/09/24 10:13:50;;;;;;;1.80;1.50;;;;;;;17.59;83.72;99083.50;5135233;27;20210;-73
2023/09/24 10:16:27;;;;;;;2.20;1.50;;;;;;;17.52;75.75;99080.97;5133959;27;20183;-73
2023/09/24 10:18:58;;;;;;;2.57;1.50;;;;;;;17.55;77.14;99075.09;5135385;27;20244;-73
2023/09/24 10:21:31;;;;;;;2.90;1.57;;;;;;;17.60;69.73;99082.47;5135700;27;20202;-73
2023/09/24 10:24:12;;;;;;;2.17;1.40;;;;;;;17.80;67.21;99081.00;5135413;27;20206;-73
2023/09/24 10:26:49;;;;;;;1.93;1.53;;;;;;;17.79;66.19;99076.69;5135321;27;20194;-73
2023/09/24 10:29:17;;;;;;;5.53;1.80;;;;;;;17.88;67.48;99086.00;5134992;27;20700;-73
2023/09/24 10:32:08;;;;;;;3.73;1.70;;;;;;;17.86;65.17;99081.88;5135033;27;20218;-73
2023/09/24 10:34:53;;;;;;;2.73;1.60;;;;;;;17.67;63.68;99086.66;5135162;27;20222;-73
2023/09/24 10:37:23;;;;;;;2.20;1.53;;;;;;;17.53;65.65;99079.91;5134969;27;20229;-73
2023/09/24 10:39:59;;;;;;;2.53;1.73;;;;;;;17.46;66.47;99079.22;5134834;27;20190;-73
2023/09/24 10:42:26;;;;;;;3.17;1.70;;;;;;;17.84;67.37;99079.47;5135031;27;20202;-73
2023/09/24 10:45:08;;;;;;;3.60;1.90;;;;;;;18.20;67.78;99078.22;5135568;27;20203;-73
2023/09/24 10:47:37;;;;;;;2.97;1.90;;;;;;;18.40;64.42;99074.03;5134910;27;20228;-73
2023/09/24 10:50:09;;;;;;;1.87;1.67;;;;;;;18.14;62.40;99068.44;5134980;27;20206;-73
2023/09/24 10:52:51;;;;;;;2.10;1.70;;;;;;;18.44;59.08;99074.34;5134963;27;20218;-73
2023/09/24 10:55:39;;;;;;;2.30;1.70;;;;;;;18.25;59.55;99072.91;5134956;27;20217;-73
2023/09/24 10:58:17;;;;;;;2.33;1.73;;;;;;;18.29;59.88;99072.22;5134501;27;20325;-73
2023/09/24 11:00:45;;;;;;;3.00;1.60;;;;;;;18.47;59.22;99077.38;5134866;27;20202;-73
2023/09/24 11:03:14;;;;;;;3.50;1.60;;;;;;;18.29;59.71;99072.22;5134719;27;20198;-73
2023/09/24 11:05:40;;;;;;;2.70;1.90;;;;;;;17.71;61.53;99063.59;5134470;27;20240;-73
2023/09/24 11:08:07;;;;;;;2.97;1.67;;;;;;;18.13;63.32;99067.59;5133703;27;20567;-73
2023/09/24 11:10:33;;;;;;;3.87;1.90;;;;;;;17.83;62.10;99067.03;5134043;27;20330;-73
2023/09/24 11:13:01;;;;;;;3.83;1.70;;;;;;;17.93;62.71;99061.88;5134504;27;20203;-73
2023/09/24 11:15:33;;;;;;;3.63;1.60;;;;;;;18.27;62.68;99063.53;5134171;27;20229;-73
2023/09/24 11:18:00;;;;;;;2.80;1.90;;;;;;;18.27;64.40;99057.34;5134506;27;20232;-73
2023/09/24 11:20:28;;;;;;;4.53;1.67;;;;;;;18.09;63.18;99055.69;5134217;27;20687;-73
2023/09/24 11:23:09;;;;;;;3.90;2.00;;;;;;;18.04;64.58;99060.16;5133930;27;20685;-73
2023/09/24 11:25:37;;;;;;;1.70;1.60;;;;;;;18.28;67.36;99054.41;5134576;27;20565;-73
2023/09/24 11:28:05;;;;;;;2.10;1.60;;;;;;;18.39;65.34;99045.47;5134292;27;20257;-73
2023/09/24 11:30:41;;;;;;;2.47;1.80;;;;;;;18.51;64.94;99053.47;5134148;27;20206;-73
2023/09/24 11:33:16;;;;;;;3.57;1.53;;;;;;;18.45;62.86;99051.72;5134453;28;20274;-73